Terminal Aerodrome Forecast
Issued by NWS Shreveport, LA

Home | Current Version | Previous Version | Text Only | Print | Product List | Glossary On
Versions: 1 2 3 4 5 6 7 8 9 10 11 12 13 14 15 16 17 18 19 20
001
FTUS44 KSHV 291154
TAFMLU
TAF
KMLU 291154Z 2912/3012 16014G22KT P6SM BKN020 OVC030
     FM291800 17016G27KT P6SM BKN030 BKN250
     FM292100 17017G28KT P6SM BKN035 BKN250
     FM300300 16015G25KT P6SM VCSH BKN025 OVC035
     FM301000 VRB20G30KT 3SM TSRA BKN015 OVC025CB=

USA.gov is the U.S. government's official web portal to all federal, state and local government web resources and services.